Time;durP1;ratioP1;P1;durP2;ratioP2;P2;SDS_P1;SDS_P2;PMS_P1;PMS_P2;Temp;Humidity;BMP_temperature;BMP_pressure;BME280_temperature;BME280_humidity;BME280_pressure;Samples;Min_cycle;Max_cycle;Signal;HPM_P1;HPM_P2
2023/01/10 00:00:31;;;;;;;15.37;2.67;;;6.40;99.90;;;;;;5053589;28;20063;-89
2023/01/10 00:02:56;;;;;;;15.27;2.87;;;6.30;99.90;;;;;;5053970;28;20024;-88
2023/01/10 00:05:22;;;;;;;11.97;1.90;;;6.30;99.90;;;;;;5053594;28;20465;-89
2023/01/10 00:07:48;;;;;;;15.43;2.73;;;6.30;99.90;;;;;;5053464;28;20520;-89
2023/01/10 00:10:14;;;;;;;8.57;2.10;;;6.30;99.90;;;;;;5037171;28;20024;-89
2023/01/10 00:15:24;;;;;;;;;;;6.30;99.90;;;;;;5054381;28;20048;-90
2023/01/10 00:17:50;;;;;;;13.00;2.10;;;6.30;99.90;;;;;;5053547;28;19905;-88
2023/01/10 00:20:15;;;;;;;15.80;3.10;;;6.40;99.90;;;;;;5053555;28;20024;-89
2023/01/10 00:22:41;;;;;;;14.87;2.70;;;6.30;99.90;;;;;;5053443;28;20056;-80
2023/01/10 00:25:07;;;;;;;9.53;2.60;;;6.40;99.90;;;;;;5052717;28;20119;-80
2023/01/10 00:27:34;;;;;;;14.10;2.37;;;6.40;99.90;;;;;;5052495;28;20075;-80
2023/01/10 00:30:06;;;;;;;15.30;2.30;;;6.40;99.90;;;;;;5036328;28;20033;-80
2023/01/10 00:32:31;;;;;;;13.50;2.20;;;6.40;99.90;;;;;;5052374;28;20060;-79
2023/01/10 00:34:57;;;;;;;16.50;2.57;;;6.30;99.90;;;;;;5036452;28;20930;-80
2023/01/10 00:37:23;;;;;;;9.83;2.77;;;6.30;99.90;;;;;;5036445;28;20079;-80
2023/01/10 00:39:48;;;;;;;14.73;2.97;;;6.20;99.90;;;;;;5035843;28;20037;-80
2023/01/10 00:44:58;;;;;;;17.98;2.35;;;6.20;99.90;;;;;;5052677;28;20098;-80
2023/01/10 00:47:23;;;;;;;14.73;2.83;;;6.10;99.90;;;;;;5035424;28;20021;-80
2023/01/10 00:49:49;;;;;;;10.43;2.60;;;6.10;99.90;;;;;;5051697;28;20029;-81
2023/01/10 00:52:15;;;;;;;16.73;2.77;;;6.10;99.90;;;;;;5035186;28;20021;-80
2023/01/10 00:54:40;;;;;;;12.97;2.57;;;6.10;99.90;;;;;;5035241;28;20036;-80
2023/01/10 00:57:06;;;;;;;16.60;3.47;;;6.00;99.90;;;;;;5035303;28;20374;-80
2023/01/10 00:59:31;;;;;;;16.30;2.60;;;5.90;99.90;;;;;;5035195;28;20029;-80
2023/01/10 01:01:57;;;;;;;13.00;2.07;;;5.90;99.90;;;;;;5052032;28;20028;-80
2023/01/10 01:04:23;;;;;;;12.80;2.20;;;5.80;99.90;;;;;;5035584;28;20025;-80
2023/01/10 01:06:49;;;;;;;14.10;2.47;;;5.80;99.90;;;;;;5035227;28;20025;-80
2023/01/10 01:09:15;;;;;;;12.00;2.57;;;5.70;99.90;;;;;;5035334;28;20028;-80
2023/01/10 01:11:41;;;;;;;10.53;2.10;;;5.70;99.90;;;;;;5051760;28;20071;-80
2023/01/10 01:14:07;;;;;;;10.03;2.60;;;5.70;99.90;;;;;;5051761;28;20021;-80
2023/01/10 01:16:33;;;;;;;17.83;2.50;;;5.60;99.90;;;;;;5053206;28;20048;-80
2023/01/10 01:18:58;;;;;;;9.03;1.67;;;5.60;99.90;;;;;;5051618;28;20036;-80
2023/01/10 01:21:27;;;;;;;16.70;1.70;;;5.60;99.90;;;;;;5035046;28;20091;-80
2023/01/10 01:23:55;;;;;;;15.97;2.57;;;5.60;99.90;;;;;;5051947;28;20199;-80
2023/01/10 01:26:25;;;;;;;11.90;2.10;;;5.60;99.90;;;;;;5035266;28;20021;-80
2023/01/10 01:28:51;;;;;;;17.77;2.00;;;5.70;99.90;;;;;;5052932;28;20029;-80
2023/01/10 01:31:16;;;;;;;10.60;1.70;;;5.70;99.90;;;;;;5051847;28;20029;-80
2023/01/10 01:33:42;;;;;;;19.53;2.63;;;5.90;99.90;;;;;;5034997;28;20017;-80
2023/01/10 01:36:09;;;;;;;16.07;2.23;;;5.80;99.90;;;;;;5034933;28;20021;-80
2023/01/10 01:38:38;;;;;;;15.53;1.90;;;5.80;99.90;;;;;;5034866;28;20055;-79
2023/01/10 01:41:55;;;;;;;19.20;2.90;;;6.00;99.90;;;;;;5056013;28;20053;-89
2023/01/10 01:44:00;;;;;;;13.80;1.90;;;5.90;99.90;;;;;;5057267;28;20021;-89
2023/01/10 01:46:25;;;;;;;14.07;2.17;;;5.90;99.90;;;;;;5056199;28;20028;-89
2023/01/10 01:48:51;;;;;;;15.97;2.80;;;5.90;99.90;;;;;;5050007;28;20036;-88
2023/01/10 01:51:22;;;;;;;14.83;2.13;;;5.80;99.90;;;;;;5036046;28;20034;-89
2023/01/10 01:54:01;;;;;;;13.83;2.03;;;5.90;99.90;;;;;;5035775;28;20068;-88
2023/01/10 01:56:41;;;;;;;11.77;2.17;;;5.90;99.90;;;;;;5036114;28;20021;-88
2023/01/10 01:59:25;;;;;;;12.27;1.73;;;5.90;99.90;;;;;;5035808;28;20075;-88
2023/01/10 02:02:01;;;;;;;10.43;1.83;;;5.90;99.90;;;;;;5036145;28;20028;-87
2023/01/10 02:04:41;;;;;;;22.57;3.23;;;5.90;99.90;;;;;;5036589;28;20381;-89
2023/01/10 02:07:08;;;;;;;15.97;2.10;;;5.90;99.90;;;;;;5037129;28;20044;-89
2023/01/10 02:09:44;;;;;;;14.43;2.10;;;5.90;99.90;;;;;;5036235;28;20033;-89
2023/01/10 02:12:12;;;;;;;15.47;1.80;;;5.90;99.90;;;;;;5035832;28;20102;-88
2023/01/10 02:14:39;;;;;;;17.03;1.70;;;5.90;99.90;;;;;;5035434;28;20071;-89
2023/01/10 02:17:07;;;;;;;9.73;1.77;;;6.00;99.90;;;;;;5036573;28;20032;-87
2023/01/10 02:19:42;;;;;;;14.40;1.90;;;6.00;99.90;;;;;;5019756;28;20489;-80
2023/01/10 02:22:44;;;;;;;16.13;1.63;;;5.90;99.90;;;;;;5035754;28;20108;-80
2023/01/10 02:25:22;;;;;;;13.93;2.50;;;5.90;99.90;;;;;;5034434;28;20038;-80
2023/01/10 02:27:56;;;;;;;12.83;1.67;;;5.90;99.90;;;;;;5034815;28;20068;-79
2023/01/10 02:30:45;;;;;;;14.27;2.37;;;5.90;99.90;;;;;;5034355;28;20032;-80
2023/01/10 02:33:35;;;;;;;9.97;1.67;;;6.00;99.90;;;;;;5034381;28;20121;-80
2023/01/10 02:36:20;;;;;;;21.87;2.33;;;6.00;99.90;;;;;;5034282;28;20017;-80
2023/01/10 02:39:15;;;;;;;12.20;2.13;;;6.00;99.90;;;;;;5034392;28;20125;-80
2023/01/10 02:41:40;;;;;;;10.55;2.17;;;6.10;99.90;;;;;;5034110;28;20025;-79
2023/01/10 02:44:39;;;;;;;15.57;2.10;;;6.10;99.90;;;;;;5033997;28;20037;-79
2023/01/10 02:47:07;;;;;;;13.53;1.53;;;6.10;99.90;;;;;;5034249;28;20488;-79
2023/01/10 02:49:47;;;;;;;14.90;2.20;;;6.10;99.90;;;;;;5034034;28;20478;-80
2023/01/10 02:52:22;;;;;;;13.67;2.57;;;6.20;99.90;;;;;;5016970;28;20120;-88
2023/01/10 02:54:54;;;;;;;11.80;1.77;;;6.20;99.90;;;;;;5034893;28;20036;-87
2023/01/10 02:57:23;;;;;;;10.13;2.23;;;6.20;99.90;;;;;;5034601;28;20029;-86
2023/01/10 03:00:00;;;;;;;7.30;1.20;;;6.30;99.90;;;;;;5034538;28;20029;-79
2023/01/10 03:02:38;;;;;;;7.10;1.90;;;6.30;99.90;;;;;;5033685;28;20061;-79
2023/01/10 03:05:10;;;;;;;12.60;1.30;;;6.30;99.90;;;;;;5033673;28;20022;-79
2023/01/10 03:07:50;;;;;;;14.40;2.57;;;6.30;99.90;;;;;;5035056;28;20026;-79
2023/01/10 03:10:24;;;;;;;11.67;1.50;;;6.30;99.90;;;;;;5033670;28;20033;-79
2023/01/10 03:12:56;;;;;;;12.18;1.30;;;6.30;99.90;;;;;;5033937;28;20025;-79
2023/01/10 03:15:26;;;;;;;14.13;2.63;;;6.30;99.90;;;;;;5033614;28;20118;-79
2023/01/10 03:17:57;;;;;;;16.73;2.00;;;6.30;99.90;;;;;;5033602;28;20021;-79
2023/01/10 03:20:23;;;;;;;17.13;2.23;;;6.30;99.90;;;;;;5033634;28;20023;-79
2023/01/10 03:22:51;;;;;;;16.30;1.97;;;6.30;99.90;;;;;;5033358;28;20048;-79
2023/01/10 03:25:21;;;;;;;12.33;2.17;;;6.20;99.90;;;;;;5017156;28;20029;-80
2023/01/10 03:27:58;;;;;;;14.87;1.90;;;6.20;99.90;;;;;;5033267;28;20354;-79
2023/01/10 03:30:27;;;;;;;11.13;1.60;;;6.20;99.90;;;;;;5034438;28;20056;-79
2023/01/10 03:32:55;;;;;;;16.80;2.43;;;6.20;99.90;;;;;;5033176;28;20030;-80
2023/01/10 03:35:27;;;;;;;15.43;2.80;;;6.20;99.90;;;;;;5033356;28;20087;-79
2023/01/10 03:38:03;;;;;;;13.27;2.00;;;6.20;99.90;;;;;;5033016;28;20022;-79
2023/01/10 03:40:31;;;;;;;16.13;2.50;;;6.20;99.90;;;;;;5033173;28;20029;-79
2023/01/10 03:46:02;;;;;;;15.67;2.47;;;6.20;99.90;;;;;;5034555;28;20492;-79
2023/01/10 03:48:33;;;;;;;17.77;2.70;;;6.20;99.90;;;;;;5032976;28;20029;-79
2023/01/10 03:51:03;;;;;;;10.97;2.90;;;6.20;99.90;;;;;;5032906;28;20026;-79
2023/01/10 03:53:30;;;;;;;17.83;3.17;;;6.30;99.90;;;;;;5032835;28;20025;-80
2023/01/10 03:55:56;;;;;;;11.53;2.53;;;6.30;99.90;;;;;;5032751;28;20033;-79
2023/01/10 03:58:22;;;;;;;21.93;3.23;;;6.30;99.90;;;;;;5016262;28;20037;-79
2023/01/10 04:00:48;;;;;;;25.03;3.27;;;6.30;99.90;;;;;;5016382;28;20026;-79
2023/01/10 04:03:15;;;;;;;16.77;3.33;;;6.40;99.90;;;;;;5032564;28;20032;-79
2023/01/10 04:05:42;;;;;;;17.37;2.70;;;6.40;99.90;;;;;;5032833;28;20104;-79
2023/01/10 04:08:07;;;;;;;16.53;3.37;;;6.50;99.90;;;;;;5032705;28;20025;-79
2023/01/10 04:10:33;;;;;;;15.67;3.57;;;6.40;99.90;;;;;;5032683;28;20044;-79
2023/01/10 04:13:02;;;;;;;16.43;4.00;;;6.40;99.90;;;;;;5016072;28;20116;-79
2023/01/10 04:15:28;;;;;;;17.03;3.40;;;6.40;99.90;;;;;;5016204;28;20043;-79
2023/01/10 04:17:55;;;;;;;21.10;4.07;;;6.40;99.90;;;;;;5032378;28;20026;-79
2023/01/10 04:20:21;;;;;;;19.33;4.13;;;6.40;99.90;;;;;;5015991;28;20045;-79
2023/01/10 04:22:48;;;;;;;12.60;3.17;;;6.40;99.90;;;;;;5032285;28;20045;-80
2023/01/10 04:25:14;;;;;;;18.13;3.97;;;6.30;99.90;;;;;;5016108;28;20087;-80
2023/01/10 04:27:40;;;;;;;17.77;4.43;;;6.30;99.90;;;;;;5015792;28;20033;-79
2023/01/10 04:30:07;;;;;;;18.73;4.77;;;6.20;99.90;;;;;;5015744;28;20035;-79
2023/01/10 04:32:32;;;;;;;18.50;3.90;;;6.30;99.90;;;;;;5033398;28;20032;-79
2023/01/10 04:34:58;;;;;;;21.67;4.20;;;6.20;99.90;;;;;;5032249;28;20018;-79
2023/01/10 04:37:26;;;;;;;22.63;4.17;;;6.10;99.90;;;;;;5015860;28;20053;-80
2023/01/10 04:39:52;;;;;;;17.70;4.70;;;6.10;99.90;;;;;;5016127;28;20099;-79
2023/01/10 04:42:17;;;;;;;19.63;4.43;;;6.10;99.90;;;;;;5032398;28;20397;-79
2023/01/10 04:44:43;;;;;;;18.33;4.80;;;6.10;99.90;;;;;;5015586;28;20056;-79
2023/01/10 04:47:08;;;;;;;20.43;4.67;;;6.10;99.90;;;;;;5032130;28;20492;-79
2023/01/10 04:49:34;;;;;;;14.27;3.60;;;6.10;99.90;;;;;;5015560;28;20459;-78
2023/01/10 04:52:00;;;;;;;18.43;4.63;;;6.10;99.90;;;;;;5015629;28;20489;-79
2023/01/10 04:54:26;;;;;;;19.13;4.60;;;6.20;99.90;;;;;;5033316;28;20037;-79
2023/01/10 04:56:51;;;;;;;18.70;3.80;;;6.20;99.90;;;;;;5032317;28;20393;-80
2023/01/10 04:59:17;;;;;;;19.17;3.97;;;6.20;99.90;;;;;;5031994;28;20033;-78
2023/01/10 05:01:43;;;;;;;20.73;4.17;;;6.20;99.90;;;;;;5032012;28;20152;-80
2023/01/10 05:04:09;;;;;;;17.57;4.43;;;6.20;99.90;;;;;;5031782;28;20032;-79
2023/01/10 05:06:36;;;;;;;23.17;4.00;;;6.20;99.90;;;;;;5015517;28;20021;-79
2023/01/10 05:09:02;;;;;;;25.47;4.40;;;6.20;99.90;;;;;;5021602;28;20115;-79
2023/01/10 05:11:27;;;;;;;18.07;4.17;;;6.30;99.90;;;;;;5052024;28;20036;-80
2023/01/10 05:13:53;;;;;;;19.23;4.27;;;6.30;99.90;;;;;;5037386;28;20029;-80
2023/01/10 05:16:19;;;;;;;23.57;4.63;;;6.30;99.90;;;;;;5060933;28;20035;-81
2023/01/10 05:18:44;;;;;;;23.73;4.00;;;6.40;99.90;;;;;;5041924;28;20025;-79
2023/01/10 05:21:11;;;;;;;23.37;4.77;;;6.40;99.90;;;;;;5038388;28;20056;-79
2023/01/10 05:23:38;;;;;;;20.83;3.90;;;6.30;99.90;;;;;;5034102;28;20080;-79
2023/01/10 05:26:09;;;;;;;19.47;4.80;;;6.40;99.90;;;;;;5034200;28;20053;-79
2023/01/10 05:28:35;;;;;;;22.17;4.13;;;6.40;99.90;;;;;;5035470;28;20088;-79
2023/01/10 05:31:01;;;;;;;16.27;2.90;;;6.40;99.90;;;;;;5052055;28;20393;-79
2023/01/10 05:33:27;;;;;;;24.27;4.90;;;6.50;99.90;;;;;;5035568;28;20030;-80
2023/01/10 05:35:53;;;;;;;20.00;4.83;;;6.50;99.90;;;;;;5035808;28;20026;-79
2023/01/10 05:38:19;;;;;;;22.17;4.93;;;6.50;99.90;;;;;;5035290;28;20033;-79
2023/01/10 05:40:44;;;;;;;23.30;4.27;;;6.60;99.90;;;;;;5068582;28;20473;-80
2023/01/10 05:43:11;;;;;;;18.80;4.03;;;6.50;99.90;;;;;;5035190;28;20028;-81
2023/01/10 05:45:37;;;;;;;19.23;4.07;;;6.50;99.90;;;;;;5035227;28;20112;-81
2023/01/10 05:48:02;;;;;;;15.60;3.30;;;6.60;99.90;;;;;;5035172;28;20032;-81
2023/01/10 05:50:28;;;;;;;27.77;4.50;;;6.60;99.90;;;;;;5051713;28;20482;-80
2023/01/10 05:52:54;;;;;;;20.53;4.17;;;6.60;99.90;;;;;;5035152;28;20075;-81
2023/01/10 05:55:20;;;;;;;18.93;4.43;;;6.60;99.90;;;;;;5068424;28;20031;-81
2023/01/10 05:57:45;;;;;;;22.87;4.50;;;6.60;99.90;;;;;;5068399;28;20052;-81
2023/01/10 06:00:12;;;;;;;21.90;3.40;;;6.60;99.90;;;;;;5051521;28;20052;-81
2023/01/10 06:02:37;;;;;;;21.67;4.47;;;6.50;99.90;;;;;;5035323;28;20013;-81
2023/01/10 06:05:03;;;;;;;22.57;4.70;;;6.50;99.90;;;;;;5068526;28;20064;-80
2023/01/10 06:07:31;;;;;;;21.17;4.13;;;6.50;99.90;;;;;;5035183;28;20506;-81
2023/01/10 06:09:56;;;;;;;20.60;3.83;;;6.50;99.90;;;;;;5051086;28;20060;-80
2023/01/10 06:12:22;;;;;;;24.07;4.57;;;6.50;99.90;;;;;;5068345;28;20030;-81
2023/01/10 06:14:51;;;;;;;23.13;4.07;;;6.50;99.90;;;;;;5051202;28;20120;-80
2023/01/10 06:17:16;;;;;;;23.00;4.30;;;6.50;99.90;;;;;;5067914;28;20080;-81
2023/01/10 06:19:42;;;;;;;26.53;4.33;;;6.50;99.90;;;;;;5051455;28;20029;-80
2023/01/10 06:22:08;;;;;;;14.73;3.63;;;6.50;99.90;;;;;;5035757;28;20022;-80
2023/01/10 06:24:33;;;;;;;18.23;5.00;;;6.40;99.90;;;;;;5067605;28;20494;-81
2023/01/10 06:26:59;;;;;;;19.33;3.97;;;6.40;99.90;;;;;;5034242;28;20426;-80
2023/01/10 06:29:25;;;;;;;29.27;6.00;;;6.40;99.90;;;;;;5067761;28;20030;-81
2023/01/10 06:31:50;;;;;;;20.10;4.63;;;6.30;99.90;;;;;;5034316;28;20026;-81
2023/01/10 06:34:16;;;;;;;21.00;4.07;;;6.30;99.90;;;;;;5034338;28;20032;-80
2023/01/10 06:36:42;;;;;;;30.87;5.03;;;6.30;99.90;;;;;;5034158;28;20028;-79
2023/01/10 06:39:07;;;;;;;25.13;5.40;;;6.30;99.90;;;;;;5050603;28;20472;-81
2023/01/10 06:41:33;;;;;;;18.60;4.13;;;6.40;99.90;;;;;;5050598;28;20029;-81
2023/01/10 06:43:59;;;;;;;24.20;3.90;;;6.30;99.90;;;;;;5034132;28;20044;-81
2023/01/10 06:46:25;;;;;;;18.27;4.33;;;6.40;99.90;;;;;;5050693;28;20121;-80
2023/01/10 06:48:53;;;;;;;19.40;3.77;;;6.40;99.90;;;;;;5067469;28;20469;-80
2023/01/10 06:51:19;;;;;;;29.93;5.40;;;6.50;99.90;;;;;;5035605;28;20044;-81
2023/01/10 06:53:44;;;;;;;25.13;5.43;;;6.60;99.90;;;;;;5050747;28;20485;-80
2023/01/10 06:56:10;;;;;;;19.07;4.17;;;6.40;99.90;;;;;;5052651;28;20418;-80
2023/01/10 06:58:39;;;;;;;17.33;3.57;;;6.40;99.90;;;;;;5035091;28;20385;-80
2023/01/10 07:01:06;;;;;;;23.23;4.33;;;6.50;99.90;;;;;;5053196;28;20032;-81
2023/01/10 07:03:32;;;;;;;19.90;4.00;;;6.40;99.90;;;;;;5052923;28;20021;-79
2023/01/10 07:06:02;;;;;;;16.13;3.80;;;6.50;99.90;;;;;;5036609;28;20028;-80
2023/01/10 07:08:28;;;;;;;28.27;4.87;;;6.50;99.90;;;;;;5053054;28;20021;-80
2023/01/10 07:10:58;;;;;;;24.70;4.63;;;6.50;99.90;;;;;;5036829;28;20504;-79
2023/01/10 07:13:24;;;;;;;26.60;4.13;;;6.50;99.90;;;;;;5053318;28;20025;-80
2023/01/10 07:15:49;;;;;;;18.10;4.83;;;6.50;99.90;;;;;;5069332;28;20039;-80
2023/01/10 07:18:18;;;;;;;24.90;3.73;;;6.60;99.90;;;;;;5070019;28;20028;-80
2023/01/10 07:20:44;;;;;;;23.20;4.13;;;6.50;99.90;;;;;;5065158;28;20009;-80
2023/01/10 07:23:10;;;;;;;20.63;3.97;;;6.60;99.90;;;;;;5070665;28;20029;-80
2023/01/10 07:25:35;;;;;;;18.27;3.73;;;6.60;99.90;;;;;;5056889;28;20499;-80
2023/01/10 07:28:03;;;;;;;25.33;4.50;;;6.70;99.90;;;;;;5036646;28;20388;-80
2023/01/10 07:30:29;;;;;;;20.53;4.03;;;6.60;99.90;;;;;;5052971;28;20064;-80
2023/01/10 07:32:59;;;;;;;22.03;3.73;;;6.60;99.90;;;;;;5053495;28;20041;-80
2023/01/10 07:35:25;;;;;;;20.30;2.73;;;6.60;99.90;;;;;;5053085;28;20075;-79
2023/01/10 07:37:51;;;;;;;22.30;4.00;;;6.70;99.90;;;;;;5052432;28;20029;-80
2023/01/10 07:40:17;;;;;;;21.03;4.73;;;6.70;99.90;;;;;;5052429;28;20064;-80
2023/01/10 07:42:42;;;;;;;22.80;3.50;;;6.60;99.90;;;;;;5079876;28;20112;-80
2023/01/10 07:45:08;;;;;;;20.00;4.57;;;6.60;99.90;;;;;;5052894;28;20029;-80
2023/01/10 07:47:34;;;;;;;21.20;3.87;;;6.60;99.90;;;;;;5052885;28;20029;-80
2023/01/10 07:50:00;;;;;;;25.50;3.97;;;6.50;99.90;;;;;;5036233;28;20083;-80
2023/01/10 07:52:26;;;;;;;26.40;3.13;;;6.60;99.90;;;;;;5036006;28;20064;-79
2023/01/10 07:54:52;;;;;;;23.53;3.83;;;6.60;99.90;;;;;;5051985;28;20721;-79
2023/01/10 07:57:17;;;;;;;21.47;4.27;;;6.60;99.90;;;;;;5036359;28;20051;-80
2023/01/10 07:59:44;;;;;;;23.67;5.00;;;6.50;99.90;;;;;;5035763;28;20021;-80
2023/01/10 08:02:10;;;;;;;24.67;4.33;;;6.60;99.90;;;;;;5052373;28;20048;-79
2023/01/10 08:04:37;;;;;;;19.00;4.07;;;6.60;99.90;;;;;;5052859;28;20379;-80
2023/01/10 08:07:03;;;;;;;27.93;4.87;;;6.70;99.90;;;;;;5051871;28;20474;-80
2023/01/10 08:09:29;;;;;;;21.53;3.50;;;6.60;99.90;;;;;;5052004;28;20021;-79
2023/01/10 08:11:54;;;;;;;26.23;4.07;;;6.60;99.90;;;;;;5060772;28;20084;-81
2023/01/10 08:14:20;;;;;;;23.13;3.47;;;6.50;99.90;;;;;;5077030;28;20350;-81
2023/01/10 08:16:46;;;;;;;22.77;3.60;;;6.60;99.90;;;;;;5077205;28;20033;-80
2023/01/10 08:19:15;;;;;;;23.73;3.77;;;6.70;99.90;;;;;;5054011;28;20024;-88
2023/01/10 08:21:41;;;;;;;18.27;2.63;;;6.70;99.90;;;;;;5053450;28;20009;-90
2023/01/10 08:24:07;;;;;;;28.63;3.60;;;6.70;99.90;;;;;;5035101;28;20094;-90
2023/01/10 08:26:35;;;;;;;25.73;3.87;;;6.70;99.90;;;;;;5054178;28;20025;-90
2023/01/10 08:29:01;;;;;;;23.63;3.70;;;6.70;99.90;;;;;;5053755;28;20088;-90
2023/01/10 08:31:27;;;;;;;17.87;3.20;;;6.70;99.90;;;;;;5053874;28;20074;-90
2023/01/10 08:33:53;;;;;;;17.50;3.00;;;6.70;99.90;;;;;;5056961;28;20029;-90
2023/01/10 08:36:21;;;;;;;20.03;2.83;;;6.70;99.90;;;;;;5034535;28;20095;-90
2023/01/10 08:38:46;;;;;;;22.07;3.43;;;6.70;99.90;;;;;;5057377;28;20482;-90
2023/01/10 08:41:12;;;;;;;20.70;2.87;;;6.70;99.90;;;;;;5081585;28;20031;-90
2023/01/10 08:43:39;;;;;;;15.03;3.20;;;6.80;99.90;;;;;;5058234;28;20017;-90
2023/01/10 08:46:06;;;;;;;16.60;3.40;;;6.80;99.90;;;;;;5056662;28;20048;-89
2023/01/10 08:48:31;;;;;;;23.23;3.70;;;6.80;99.90;;;;;;5078498;28;20372;-90
2023/01/10 08:50:58;;;;;;;14.93;3.30;;;6.90;99.90;;;;;;5086177;28;20013;-80
2023/01/10 08:53:30;;;;;;;24.23;3.77;;;6.90;99.90;;;;;;5068698;28;20131;-80
2023/01/10 08:55:55;;;;;;;24.87;4.37;;;6.90;99.90;;;;;;5069545;28;20119;-80
2023/01/10 08:58:21;;;;;;;24.13;3.13;;;7.00;99.90;;;;;;5053138;28;20067;-79
2023/01/10 09:00:48;;;;;;;20.17;4.53;;;7.00;99.90;;;;;;5068712;28;20029;-80
2023/01/10 09:03:14;;;;;;;24.77;3.40;;;7.00;99.90;;;;;;5085953;28;20571;-80
2023/01/10 09:05:40;;;;;;;29.70;4.10;;;7.00;99.90;;;;;;5085369;28;20029;-80
2023/01/10 09:08:05;;;;;;;18.50;3.67;;;7.10;99.90;;;;;;5085324;28;20028;-80
2023/01/10 09:10:31;;;;;;;22.57;3.60;;;7.10;99.90;;;;;;5076114;28;20017;-81
2023/01/10 09:13:00;;;;;;;22.67;4.63;;;7.20;99.90;;;;;;5076601;28;20139;-81
2023/01/10 09:15:29;;;;;;;22.20;3.90;;;7.10;99.90;;;;;;5053188;28;20084;-81
2023/01/10 09:18:06;;;;;;;20.30;4.23;;;7.00;99.90;;;;;;5051770;28;20457;-78
2023/01/10 09:20:34;;;;;;;30.53;4.10;;;7.00;99.90;;;;;;5051558;28;20032;-80
2023/01/10 09:23:07;;;;;;;28.20;4.23;;;7.00;99.90;;;;;;5051329;28;20021;-79
2023/01/10 09:25:33;;;;;;;22.95;4.85;;;7.10;99.90;;;;;;5052232;28;20053;-79
2023/01/10 09:28:01;;;;;;;27.07;4.50;;;7.10;99.90;;;;;;5051596;28;20067;-80
2023/01/10 09:30:28;;;;;;;23.50;3.77;;;7.00;99.90;;;;;;5051880;28;20119;-80
2023/01/10 09:32:55;;;;;;;20.07;3.37;;;7.00;99.90;;;;;;5051519;28;20025;-79
2023/01/10 09:35:22;;;;;;;26.73;4.13;;;7.10;99.90;;;;;;5051889;28;20043;-79
2023/01/10 09:37:52;;;;;;;18.33;3.67;;;7.10;99.90;;;;;;5051164;28;20029;-78
2023/01/10 09:40:56;;;;;;;27.20;4.33;;;7.10;99.90;;;;;;5060181;28;20509;-79
2023/01/10 09:43:46;;;;;;;17.70;3.22;;;7.10;99.90;;;;;;5049588;28;20052;-79
2023/01/10 09:46:30;;;;;;;21.63;3.87;;;7.20;99.90;;;;;;5050591;28;20025;-79
2023/01/10 09:49:17;;;;;;;;;;;7.30;99.90;;;;;;5049245;28;20025;-80
2023/01/10 09:51:47;;;;;;;20.33;4.60;;;7.20;99.90;;;;;;5050221;28;19905;-79
2023/01/10 09:54:27;;;;;;;22.03;4.63;;;7.10;99.90;;;;;;5051264;28;20033;-79
2023/01/10 09:56:53;;;;;;;25.53;4.77;;;7.10;99.90;;;;;;5051410;28;20040;-79
2023/01/10 09:59:23;;;;;;;24.87;4.93;;;7.20;99.90;;;;;;5051325;28;20021;-79
2023/01/10 10:01:58;;;;;;;20.70;4.30;;;7.00;99.90;;;;;;5054311;28;20078;-79
2023/01/10 10:04:29;;;;;;;19.77;3.33;;;7.00;99.90;;;;;;5055061;28;20032;-79
2023/01/10 10:06:55;;;;;;;22.20;3.70;;;7.10;99.90;;;;;;5055263;28;20029;-78
2023/01/10 10:09:25;;;;;;;24.57;4.87;;;7.10;99.90;;;;;;5038168;28;20496;-78
2023/01/10 10:12:18;;;;;;;19.07;3.43;;;7.10;99.90;;;;;;5054918;28;20029;-79
2023/01/10 10:14:51;;;;;;;23.37;4.13;;;7.10;99.90;;;;;;5054869;28;20430;-79
2023/01/10 10:17:26;;;;;;;22.53;3.67;;;7.10;99.90;;;;;;5055086;28;20044;-78
2023/01/10 10:19:54;;;;;;;20.60;3.43;;;7.10;99.90;;;;;;5054642;28;20496;-78
2023/01/10 10:22:38;;;;;;;20.20;3.80;;;7.10;99.90;;;;;;5054438;28;20539;-79
2023/01/10 10:25:16;;;;;;;26.97;4.07;;;7.00;99.90;;;;;;5053690;28;20045;-79
2023/01/10 10:28:19;;;;;;;28.57;4.00;;;7.10;99.90;;;;;;5053917;28;20112;-79
2023/01/10 10:30:55;;;;;;;27.50;3.97;;;7.10;99.90;;;;;;5053975;28;20029;-80
2023/01/10 10:33:20;;;;;;;28.73;4.30;;;7.10;99.90;;;;;;5079035;28;20025;-79
2023/01/10 10:35:59;;;;;;;19.07;3.67;;;7.10;99.90;;;;;;5051189;28;20040;-79
2023/01/10 10:38:30;;;;;;;19.47;3.53;;;7.10;99.90;;;;;;5087758;28;20032;-79
2023/01/10 10:40:58;;;;;;;18.67;3.57;;;7.10;99.90;;;;;;5055688;28;20686;-80
2023/01/10 10:43:31;;;;;;;21.40;4.03;;;7.10;99.90;;;;;;5087730;28;20102;-79
2023/01/10 10:46:08;;;;;;;26.83;3.57;;;7.20;99.90;;;;;;5087904;28;20057;-80
2023/01/10 10:48:52;;;;;;;23.50;2.80;;;7.30;99.90;;;;;;5087791;28;20501;-80
2023/01/10 10:51:44;;;;;;;24.67;4.20;;;7.30;99.90;;;;;;5070456;28;20030;-80
2023/01/10 10:54:13;;;;;;;26.23;3.87;;;7.40;99.90;;;;;;5034030;28;20095;-80
2023/01/10 10:56:40;;;;;;;20.50;3.53;;;7.40;99.90;;;;;;5050798;28;20026;-80
2023/01/10 10:59:06;;;;;;;23.77;3.63;;;7.40;99.90;;;;;;5050657;28;20022;-80
2023/01/10 11:01:31;;;;;;;22.63;3.73;;;7.50;99.90;;;;;;5034050;28;20079;-80
2023/01/10 11:03:59;;;;;;;20.47;2.83;;;7.50;99.90;;;;;;5034137;28;20025;-79
2023/01/10 11:06:28;;;;;;;19.30;3.10;;;7.50;99.90;;;;;;5033756;28;20017;-79
2023/01/10 11:09:00;;;;;;;23.37;3.23;;;7.50;99.90;;;;;;5035140;28;20485;-79
2023/01/10 11:11:34;;;;;;;22.43;3.17;;;7.50;99.90;;;;;;5050320;28;20074;-80
2023/01/10 11:14:03;;;;;;;22.33;3.45;;;7.40;99.90;;;;;;5076558;28;20378;-82
2023/01/10 11:16:32;;;;;;;20.30;4.13;;;7.50;99.90;;;;;;5052830;28;20025;-80
2023/01/10 11:19:23;;;;;;;23.80;3.37;;;7.50;99.90;;;;;;5052120;28;20044;-79
2023/01/10 11:21:56;;;;;;;24.67;3.80;;;7.40;99.90;;;;;;5050453;28;20021;-80
2023/01/10 11:24:28;;;;;;;18.47;3.50;;;7.40;99.90;;;;;;5051356;28;20040;-79
2023/01/10 11:26:55;;;;;;;21.63;3.77;;;7.40;99.90;;;;;;5053260;28;20028;-79
2023/01/10 11:29:38;;;;;;;20.07;4.07;;;7.40;99.90;;;;;;5077865;28;20017;-79
2023/01/10 11:32:16;;;;;;;21.33;3.23;;;7.40;99.90;;;;;;5050739;28;20058;-80
2023/01/10 11:34:52;;;;;;;20.77;3.20;;;7.50;99.90;;;;;;5052994;28;20028;-79
2023/01/10 11:37:31;;;;;;;23.00;3.53;;;7.50;99.90;;;;;;5053743;28;20079;-80
2023/01/10 11:40:22;;;;;;;13.80;2.67;;;7.50;99.90;;;;;;5054451;28;20417;-81
2023/01/10 11:42:48;;;;;;;21.57;3.00;;;7.50;99.90;;;;;;5054660;28;20373;-82
2023/01/10 11:45:17;;;;;;;18.57;2.73;;;7.50;99.90;;;;;;5053446;28;20112;-81
2023/01/10 11:47:57;;;;;;;23.30;2.93;;;7.50;99.90;;;;;;5053302;28;20052;-79
2023/01/10 11:50:34;;;;;;;17.70;3.23;;;7.60;99.90;;;;;;5054274;28;20021;-79
2023/01/10 11:53:00;;;;;;;18.63;3.23;;;7.60;99.90;;;;;;5053257;28;20025;-79
2023/01/10 11:55:31;;;;;;;25.13;4.67;;;7.60;99.90;;;;;;5053023;28;20079;-79
2023/01/10 11:58:09;;;;;;;25.43;3.90;;;7.60;99.90;;;;;;5052862;28;20032;-79
2023/01/10 12:00:47;;;;;;;21.13;2.87;;;7.60;99.90;;;;;;5052783;28;20025;-78
2023/01/10 12:03:36;;;;;;;20.87;4.03;;;7.60;99.90;;;;;;5052828;28;20079;-79
2023/01/10 12:06:15;;;;;;;21.20;2.80;;;7.60;99.90;;;;;;5054014;28;20017;-79
2023/01/10 12:08:43;;;;;;;18.87;3.07;;;7.60;99.90;;;;;;5052631;28;20111;-79
2023/01/10 12:11:12;;;;;;;19.53;3.33;;;7.60;99.90;;;;;;5052660;28;20445;-79
2023/01/10 12:13:50;;;;;;;24.60;4.30;;;7.60;99.90;;;;;;5052820;28;20211;-79
2023/01/10 12:16:21;;;;;;;20.07;3.23;;;7.60;99.90;;;;;;5053423;28;20024;-79
2023/01/10 12:18:48;;;;;;;17.77;3.20;;;7.60;99.90;;;;;;5053437;28;20124;-80
2023/01/10 12:21:18;;;;;;;18.57;3.37;;;7.70;99.90;;;;;;5052907;28;20043;-79
2023/01/10 12:23:46;;;;;;;25.53;4.13;;;7.70;99.90;;;;;;5052949;28;20037;-79
2023/01/10 12:26:12;;;;;;;25.97;3.67;;;7.70;99.90;;;;;;5053616;28;20039;-80
2023/01/10 12:28:43;;;;;;;21.73;3.23;;;7.60;99.90;;;;;;5035723;28;20035;-79
2023/01/10 12:31:14;;;;;;;18.40;3.07;;;7.70;99.90;;;;;;5053866;28;20112;-81
2023/01/10 12:33:46;;;;;;;19.30;3.57;;;7.70;99.90;;;;;;5052337;28;20059;-79
2023/01/10 12:36:32;;;;;;;19.77;3.37;;;7.70;99.90;;;;;;5052505;28;20021;-80
2023/01/10 12:39:19;;;;;;;34.20;5.13;;;7.70;99.90;;;;;;5052195;28;20028;-79
2023/01/10 12:45:01;;;;;;;17.10;3.20;;;7.70;99.90;;;;;;5053226;28;20032;-79
2023/01/10 12:47:55;;;;;;;26.07;3.70;;;7.70;99.90;;;;;;5053683;28;20021;-79
2023/01/10 12:50:42;;;;;;;15.87;3.73;;;7.80;99.90;;;;;;5052017;28;20108;-81
2023/01/10 12:53:08;;;;;;;18.07;3.67;;;7.70;99.90;;;;;;5051967;28;20021;-79
2023/01/10 12:55:43;;;;;;;18.60;3.37;;;7.80;99.80;;;;;;5052146;28;20029;-79
2023/01/10 12:58:23;;;;;;;21.13;3.73;;;7.80;99.90;;;;;;5051800;28;20106;-79
2023/01/10 13:00:55;;;;;;;23.23;3.43;;;7.70;99.90;;;;;;5051651;28;20141;-79
2023/01/10 13:03:27;;;;;;;20.97;3.60;;;7.80;99.90;;;;;;5051626;28;20029;-78
2023/01/10 13:05:53;;;;;;;27.23;4.07;;;7.80;99.80;;;;;;5051753;28;20029;-79
2023/01/10 13:08:24;;;;;;;26.30;3.87;;;7.70;99.70;;;;;;5053727;28;20060;-79
2023/01/10 13:10:53;;;;;;;26.23;4.00;;;7.70;99.70;;;;;;5051726;28;20013;-78
2023/01/10 13:13:38;;;;;;;19.87;2.80;;;7.80;99.70;;;;;;5051796;28;20107;-79